Time;durP1;ratioP1;P1;durP2;ratioP2;P2;SDS_P1;SDS_P2;PMS_P1;PMS_P2;Temp;Humidity;BMP_temperature;BMP_pressure;BME280_temperature;BME280_humidity;BME280_pressure;Samples;Min_cycle;Max_cycle;Signal;HPM_P1;HPM_P2
2022/08/08 00:00:43;;;;;;;;;;;;;;;-144.99;100.00;61100.13;5071861;28;20023;-68
2022/08/08 00:03:13;;;;;;;;;;;;;;;-144.99;100.00;61100.13;5072175;28;19935;-67
2022/08/08 00:05:43;;;;;;;;;;;;;;;-144.99;100.00;61100.13;5079827;28;19928;-67
2022/08/08 00:08:13;;;;;;;;;;;;;;;-144.99;100.00;61100.13;5082395;28;19960;-68
2022/08/08 00:10:43;;;;;;;;;;;;;;;-144.99;100.00;61100.13;5077075;28;20476;-68
2022/08/08 00:13:19;;;;;;;;;;;;;;;-144.99;100.00;61100.13;5072371;28;20019;-67
2022/08/08 00:15:47;;;;;;;;;;;;;;;-144.99;100.00;61100.13;5073146;28;19959;-67
2022/08/08 00:18:17;;;;;;;;;;;;;;;-144.99;100.00;61100.13;5072959;28;20032;-67
2022/08/08 00:20:52;;;;;;;;;;;;;;;-144.99;100.00;61100.13;5072826;28;19931;-68
2022/08/08 00:23:24;;;;;;;;;;;;;;;-144.99;100.00;61100.13;5070126;28;19925;-69
2022/08/08 00:25:52;;;;;;;;;;;;;;;-144.99;100.00;61100.13;5073431;28;20004;-68
2022/08/08 00:28:23;;;;;;;;;;;;;;;-144.99;100.00;61100.13;5073976;28;20011;-68
2022/08/08 00:30:53;;;;;;;;;;;;;;;-144.99;100.00;61100.13;5070505;28;20317;-69
2022/08/08 00:33:23;;;;;;;;;;;;;;;-144.99;100.00;61100.13;5081557;28;20401;-69
2022/08/08 00:35:54;;;;;;;;;;;;;;;-144.99;100.00;61100.13;5081347;28;20411;-71
2022/08/08 00:38:26;;;;;;;;;;;;;;;-144.99;100.00;61100.13;5074739;28;20020;-63
2022/08/08 00:41:20;;;;;;;;;;;;;;;-144.99;100.00;61100.13;5072219;28;19924;-63
2022/08/08 00:44:01;;;;;;;;;;;;;;;-144.99;100.00;61100.13;5072094;28;19985;-62
2022/08/08 00:46:39;;;;;;;;;;;;;;;-144.99;100.00;61100.13;5077381;28;19931;-62
2022/08/08 00:49:30;;;;;;;;;;;;;;;-144.99;100.00;61100.13;5082735;28;19924;-64
2022/08/08 00:52:07;;;;;;;;;;;;;;;-144.99;100.00;61100.13;5079943;28;20314;-64
2022/08/08 00:54:42;;;;;;;;;;;;;;;-144.99;100.00;61100.13;5067485;28;20026;-63
2022/08/08 00:57:23;;;;;;;;;;;;;;;-144.99;100.00;61100.13;5086348;28;19986;-64
2022/08/08 01:00:08;;;;;;;;;;;;;;;-144.99;100.00;61100.13;5068907;28;19936;-64
2022/08/08 01:02:53;;;;;;;;;;;;;;;-144.99;100.00;61100.13;5084011;28;20335;-65
2022/08/08 01:05:35;;;;;;;;;;;;;;;-144.99;100.00;61100.13;5079753;28;20425;-64
2022/08/08 01:08:22;;;;;;;;;;;;;;;-144.99;100.00;61100.13;5069526;28;20019;-64
2022/08/08 01:11:06;;;;;;;;;;;;;;;-144.99;100.00;61100.13;5066015;28;20019;-64
2022/08/08 01:13:55;;;;;;;;;;;;;;;-144.99;100.00;61100.13;5062485;28;19975;-65
2022/08/08 01:16:44;;;;;;;;;;;;;;;-144.99;100.00;61100.13;5071610;28;19931;-61
2022/08/08 01:19:44;;;;;;;;;;;;;;;-144.99;100.00;61100.13;5070918;28;19967;-61
2022/08/08 01:22:25;;;;;;;;;;;;;;;-144.99;100.00;61100.13;5077277;28;19963;-61
2022/08/08 01:25:14;;;;;;;;;;;;;;;-144.99;100.00;61100.13;5059249;28;20274;-61
2022/08/08 01:28:06;;;;;;;;;;;;;;;-144.99;100.00;61100.13;5068358;28;19963;-61
2022/08/08 01:30:50;;;;;;;;;;;;;;;-144.99;100.00;61100.13;5078065;28;19928;-63
2022/08/08 01:33:35;;;;;;;;;;;;;;;-144.99;100.00;61100.13;5066922;28;19968;-64
2022/08/08 01:36:31;;;;;;;;;;;;;;;-144.99;100.00;61100.13;5074953;28;19935;-61
2022/08/08 01:39:16;;;;;;;;;;;;;;;-144.99;100.00;61100.13;5077091;28;19925;-65
2022/08/08 01:41:51;;;;;;;;;;;;;;;-144.99;100.00;61100.13;5077091;28;20368;-63
2022/08/08 01:44:25;;;;;;;;;;;;;;;-144.99;100.00;61100.13;5083241;28;19928;-63
2022/08/08 01:46:58;;;;;;;;;;;;;;;-144.99;100.00;61100.13;5077999;28;19924;-62
2022/08/08 01:49:35;;;;;;;;;;;;;;;-144.99;100.00;61100.13;5081625;28;20023;-66
2022/08/08 01:52:05;;;;;;;;;;;;;;;-144.99;100.00;61100.13;5067915;28;19968;-66
2022/08/08 01:54:42;;;;;;;;;;;;;;;-144.99;100.00;61100.13;5073178;28;19924;-66
2022/08/08 01:57:13;;;;;;;;;;;;;;;-144.99;100.00;61100.13;5083984;28;19924;-66
2022/08/08 01:59:48;;;;;;;;;;;;;;;-144.99;100.00;61100.13;5075758;28;19924;-67
2022/08/08 02:02:21;;;;;;;;;;;;;;;-144.99;100.00;61100.13;5063454;28;19925;-67
2022/08/08 02:04:53;;;;;;;;;;;;;;;-144.99;100.00;61100.13;5070661;28;19928;-66
2022/08/08 02:07:22;;;;;;;;;;;;;;;-144.99;100.00;61100.13;5070277;28;20444;-66
2022/08/08 02:09:59;;;;;;;;;;;;;;;-144.99;100.00;61100.13;5070859;28;19924;-67
2022/08/08 02:12:29;;;;;;;;;;;;;;;-144.99;100.00;61100.13;5078833;28;20027;-65
2022/08/08 02:14:59;;;;;;;;;;;;;;;-144.99;100.00;61100.13;5083843;28;20015;-66
2022/08/08 02:17:29;;;;;;;;;;;;;;;-144.99;100.00;61100.13;5072242;28;19935;-68
2022/08/08 02:19:57;;;;;;;;;;;;;;;-144.99;100.00;61100.13;5062472;28;19963;-66
2022/08/08 02:22:32;;;;;;;;;;;;;;;-144.99;100.00;61100.13;5069909;28;19924;-66
2022/08/08 02:25:08;;;;;;;;;;;;;;;-144.99;100.00;61100.13;5065620;28;20366;-66
2022/08/08 02:27:39;;;;;;;;;;;;;;;-144.99;100.00;61100.13;5069538;28;20023;-65
2022/08/08 02:30:07;;;;;;;;;;;;;;;-144.99;100.00;61100.13;5064562;28;20027;-64
2022/08/08 02:32:40;;;;;;;;;;;;;;;-144.99;100.00;61100.13;5070054;28;19928;-65
2022/08/08 02:35:25;;;;;;;;;;;;;;;-144.99;100.00;61100.13;5069664;28;20058;-62
2022/08/08 02:38:10;;;;;;;;;;;;;;;-144.99;100.00;61100.13;5070003;28;19936;-63
2022/08/08 02:40:42;;;;;;;;;;;;;;;-144.99;100.00;61100.13;5065223;28;20409;-64
2022/08/08 02:43:33;;;;;;;;;;;;;;;-144.99;100.00;61100.13;5069548;28;20015;-64
2022/08/08 02:46:23;;;;;;;;;;;;;;;-144.99;100.00;61100.13;5063640;28;20010;-64
2022/08/08 02:49:01;;;;;;;;;;;;;;;-144.99;100.00;61100.13;5060914;28;19931;-64
2022/08/08 02:51:45;;;;;;;;;;;;;;;-144.99;100.00;61100.13;5076316;28;20015;-66
2022/08/08 02:54:32;;;;;;;;;;;;;;;-144.99;100.00;61100.13;5069625;28;20320;-63
2022/08/08 02:57:21;;;;;;;;;;;;;;;-144.99;100.00;61100.13;5069647;28;19928;-64
2022/08/08 03:00:05;;;;;;;;;;;;;;;-144.99;100.00;61100.13;5065282;28;19924;-66
2022/08/08 03:02:48;;;;;;;;;;;;;;;-144.99;100.00;61100.13;5069791;28;19925;-66
2022/08/08 03:05:28;;;;;;;;;;;;;;;-144.99;100.00;61100.13;5069319;28;20476;-66
2022/08/08 03:08:13;;;;;;;;;;;;;;;-144.99;100.00;61100.13;5069684;28;20296;-66
2022/08/08 03:10:57;;;;;;;;;;;;;;;-144.99;100.00;61100.13;5066986;28;20007;-66
2022/08/08 03:13:44;;;;;;;;;;;;;;;-144.99;100.00;61100.13;5072762;28;20014;-67
2022/08/08 03:16:22;;;;;;;;;;;;;;;-144.99;100.00;61100.13;5080440;28;20023;-66
2022/08/08 03:18:56;;;;;;;;;;;;;;;-144.99;100.00;61100.13;5080677;28;20040;-67
2022/08/08 03:21:22;;;;;;;;;;;;;;;-144.99;100.00;61100.13;5069226;28;19935;-68
2022/08/08 03:23:50;;;;;;;;;;;;;;;-144.99;100.00;61100.13;5073933;28;19929;-65
2022/08/08 03:26:19;;;;;;;;;;;;;;;-144.99;100.00;61100.13;5077442;28;19932;-65
2022/08/08 03:28:47;;;;;;;;;;;;;;;-144.99;100.00;61100.13;5070250;28;20349;-63
2022/08/08 03:33:57;;;;;;;;;;;;;;;-144.99;100.00;61100.13;5063493;28;20208;-64
2022/08/08 03:36:24;;;;;;;;;;;;;;;-144.99;100.00;61100.13;5069000;28;20413;-64
2022/08/08 03:38:52;;;;;;;;;;;;;;;-144.99;100.00;61100.13;5073964;28;19931;-64
2022/08/08 03:41:19;;;;;;;;;;;;;;;-144.99;100.00;61100.13;5080090;28;20393;-64
2022/08/08 03:43:54;;;;;;;;;;;;;;;-144.99;100.00;61100.13;5080437;28;19970;-65
2022/08/08 03:46:20;;;;;;;;;;;;;;;-144.99;100.00;61100.13;5081235;28;20015;-64
2022/08/08 03:48:54;;;;;;;;;;;;;;;-144.99;100.00;61100.13;5083130;28;19924;-63
2022/08/08 03:51:20;;;;;;;;;;;;;;;-144.99;100.00;61100.13;5074673;28;20046;-63
2022/08/08 03:53:47;;;;;;;;;;;;;;;-144.99;100.00;61100.13;5075428;28;20019;-64
2022/08/08 03:56:16;;;;;;;;;;;;;;;-144.99;100.00;61100.13;5084372;28;19960;-64
2022/08/08 03:58:48;;;;;;;;;;;;;;;-144.99;100.00;61100.13;5080842;28;20479;-64
2022/08/08 04:01:14;;;;;;;;;;;;;;;-144.99;100.00;61100.13;5079135;28;19928;-63
2022/08/08 04:03:43;;;;;;;;;;;;;;;-144.99;100.00;61100.13;5092111;22;20472;-67
2022/08/08 04:06:10;;;;;;;;;;;;;;;-144.99;100.00;61100.13;5087797;28;19924;-66
2022/08/08 04:08:37;;;;;;;;;;;;;;;-144.99;100.00;61100.13;5079992;28;19971;-65
2022/08/08 04:11:04;;;;;;;;;;;;;;;-144.99;100.00;61100.13;5086637;28;20443;-65
2022/08/08 04:13:32;;;;;;;;;;;;;;;-144.99;100.00;61100.13;5086128;28;19956;-66
2022/08/08 04:15:59;;;;;;;;;;;;;;;-144.99;100.00;61100.13;5079093;28;20425;-65
2022/08/08 04:18:26;;;;;;;;;;;;;;;-144.99;100.00;61100.13;5078851;28;20019;-65
2022/08/08 04:20:52;;;;;;;;;;;;;;;-144.99;100.00;61100.13;5065568;28;20027;-64
2022/08/08 04:23:19;;;;;;;;;;;;;;;-144.99;100.00;61100.13;5071481;28;20014;-65
2022/08/08 04:25:45;;;;;;;;;;;;;;;-144.99;100.00;61100.13;5072608;28;20038;-62
2022/08/08 04:28:12;;;;;;;;;;;;;;;-144.99;100.00;61100.13;5071802;28;20001;-61
2022/08/08 04:30:41;;;;;;;;;;;;;;;-144.99;100.00;61100.13;5066798;28;19935;-60
2022/08/08 04:33:07;;;;;;;;;;;;;;;-144.99;100.00;61100.13;5082965;28;20417;-60
2022/08/08 04:35:33;;;;;;;;;;;;;;;-144.99;100.00;61100.13;5077645;28;20070;-59
2022/08/08 04:38:00;;;;;;;;;;;;;;;-144.99;100.00;61100.13;5082287;28;20022;-60
2022/08/08 04:40:26;;;;;;;;;;;;;;;-144.99;100.00;61100.13;5075608;28;19925;-60
2022/08/08 04:42:53;;;;;;;;;;;;;;;-144.99;100.00;61100.13;5082287;28;20405;-60
2022/08/08 04:45:19;;;;;;;;;;;;;;;-144.99;100.00;61100.13;5078956;28;19924;-66
2022/08/08 04:47:47;;;;;;;;;;;;;;;-144.99;100.00;61100.13;5082654;28;19934;-65
2022/08/08 04:50:14;;;;;;;;;;;;;;;-144.99;100.00;61100.13;5076768;28;19935;-65
2022/08/08 04:52:40;;;;;;;;;;;;;;;-144.99;100.00;61100.13;5070613;28;19972;-65
2022/08/08 04:55:07;;;;;;;;;;;;;;;-144.99;100.00;61100.13;5067240;28;19972;-64
2022/08/08 04:57:33;;;;;;;;;;;;;;;-144.99;100.00;61100.13;5071332;28;20358;-65
2022/08/08 05:00:00;;;;;;;;;;;;;;;-144.99;100.00;61100.13;5069124;28;19931;-65
2022/08/08 05:02:26;;;;;;;;;;;;;;;-144.99;100.00;61100.13;5076237;28;19959;-64
2022/08/08 05:04:54;;;;;;;;;;;;;;;-144.99;100.00;61100.13;5081321;28;19924;-64
2022/08/08 05:07:21;;;;;;;;;;;;;;;-144.99;100.00;61100.13;5083819;28;19983;-64
2022/08/08 05:09:47;;;;;;;;;;;;;;;-144.99;100.00;61100.13;5082533;28;19969;-64
2022/08/08 05:12:13;;;;;;;;;;;;;;;-144.99;100.00;61100.13;5075484;28;19924;-65
2022/08/08 05:14:40;;;;;;;;;;;;;;;-144.99;100.00;61100.13;5071666;28;20055;-69
2022/08/08 05:17:06;;;;;;;;;;;;;;;-144.99;100.00;61100.13;5070799;28;19994;-70
2022/08/08 05:19:34;;;;;;;;;;;;;;;-144.99;100.00;61100.13;5074758;28;19993;-68
2022/08/08 05:22:02;;;;;;;;;;;;;;;-144.99;100.00;61100.13;5081603;28;19954;-69
2022/08/08 05:24:28;;;;;;;;;;;;;;;-144.99;100.00;61100.13;5071736;28;19924;-69
2022/08/08 05:26:55;;;;;;;;;;;;;;;-144.99;100.00;61100.13;5070279;28;19975;-70
2022/08/08 05:29:21;;;;;;;;;;;;;;;-144.99;100.00;61100.13;5080371;28;20019;-70
2022/08/08 05:31:48;;;;;;;;;;;;;;;-144.99;100.00;61100.13;5073751;28;20193;-70
2022/08/08 05:34:18;;;;;;;;;;;;;;;-144.99;100.00;61100.13;5073832;28;20436;-70
2022/08/08 05:36:46;;;;;;;;;;;;;;;-144.99;100.00;61100.13;5073480;28;19924;-70
2022/08/08 05:39:17;;;;;;;;;;;;;;;-144.99;100.00;61100.13;5075052;28;19928;-70
2022/08/08 05:41:44;;;;;;;;;;;;;;;-144.99;100.00;61100.13;5076656;28;19987;-70
2022/08/08 05:44:12;;;;;;;;;;;;;;;-144.99;100.00;61100.13;5071566;28;20014;-70
2022/08/08 05:46:40;;;;;;;;;;;;;;;-144.99;100.00;61100.13;5071712;28;19999;-71
2022/08/08 05:49:07;;;;;;;;;;;;;;;-144.99;100.00;61100.13;5073003;28;19932;-69
2022/08/08 05:51:34;;;;;;;;;;;;;;;-144.99;100.00;61100.13;5074294;28;19924;-70
2022/08/08 05:54:01;;;;;;;;;;;;;;;-144.99;100.00;61100.13;5067063;28;19924;-70
2022/08/08 05:56:30;;;;;;;;;;;;;;;-144.99;100.00;61100.13;5068899;28;19939;-69
2022/08/08 05:59:01;;;;;;;;;;;;;;;-144.99;100.00;61100.13;5072540;28;20058;-71
2022/08/08 06:01:27;;;;;;;;;;;;;;;-144.99;100.00;61100.13;5069735;28;19925;-71
2022/08/08 06:03:58;;;;;;;;;;;;;;;-144.99;100.00;61100.13;5070569;28;20069;-71
2022/08/08 06:06:27;;;;;;;;;;;;;;;-144.99;100.00;61100.13;5070309;28;20023;-71
2022/08/08 06:08:55;;;;;;;;;;;;;;;-144.99;100.00;61100.13;5077880;28;19931;-70
2022/08/08 06:11:22;;;;;;;;;;;;;;;-144.99;100.00;61100.13;5079466;28;19968;-70
2022/08/08 06:13:50;;;;;;;;;;;;;;;-144.99;100.00;61100.13;5075385;28;19953;-70
2022/08/08 06:16:17;;;;;;;;;;;;;;;-144.99;100.00;61100.13;5070797;28;20385;-69
2022/08/08 06:18:43;;;;;;;;;;;;;;;-144.99;100.00;61100.13;5070383;28;20353;-69
2022/08/08 06:21:10;;;;;;;;;;;;;;;-144.99;100.00;61100.13;5070356;28;19931;-69
2022/08/08 06:23:37;;;;;;;;;;;;;;;-144.99;100.00;61100.13;5073779;28;20031;-70
2022/08/08 06:26:05;;;;;;;;;;;;;;;-144.99;100.00;61100.13;5069437;28;19989;-69
2022/08/08 06:28:33;;;;;;;;;;;;;;;-144.99;100.00;61100.13;5069833;28;20015;-68
2022/08/08 06:31:02;;;;;;;;;;;;;;;-144.99;100.00;61100.13;5066268;28;19924;-69
2022/08/08 06:33:34;;;;;;;;;;;;;;;-144.99;100.00;61100.13;5078517;28;20055;-70
2022/08/08 06:36:02;;;;;;;;;;;;;;;-144.99;100.00;61100.13;5080495;28;19961;-70
2022/08/08 06:38:33;;;;;;;;;;;;;;;-144.99;100.00;61100.13;5084129;28;20385;-69
2022/08/08 06:41:03;;;;;;;;;;;;;;;-144.99;100.00;61100.13;5069578;28;20023;-69
2022/08/08 06:43:33;;;;;;;;;;;;;;;-144.99;100.00;61100.13;5077076;28;19931;-69
2022/08/08 06:46:02;;;;;;;;;;;;;;;-144.99;100.00;61100.13;5063421;28;20095;-68
2022/08/08 06:48:28;;;;;;;;;;;;;;;-144.99;100.00;61100.13;5069383;28;20015;-68
2022/08/08 06:50:55;;;;;;;;;;;;;;;-144.99;100.00;61100.13;5075490;28;20015;-68
2022/08/08 06:53:22;;;;;;;;;;;;;;;-144.99;100.00;61100.13;5069409;28;20076;-68
2022/08/08 06:55:49;;;;;;;;;;;;;;;-144.99;100.00;61100.13;5069258;28;20015;-68
2022/08/08 06:58:15;;;;;;;;;;;;;;;-144.99;100.00;61100.13;5068948;28;20433;-68
2022/08/08 07:00:45;;;;;;;;;;;;;;;-144.99;100.00;61100.13;5072756;28;19924;-69
2022/08/08 07:03:17;;;;;;;;;;;;;;;-144.99;100.00;61100.13;5070740;28;19924;-68
2022/08/08 07:05:45;;;;;;;;;;;;;;;-144.99;100.00;61100.13;5081270;28;19924;-68
2022/08/08 07:08:17;;;;;;;;;;;;;;;-144.99;100.00;61100.13;5079748;28;20023;-68
2022/08/08 07:10:48;;;;;;;;;;;;;;;-144.99;100.00;61100.13;5083725;28;20269;-69
2022/08/08 07:13:17;;;;;;;;;;;;;;;-144.99;100.00;61100.13;5066408;28;20046;-68
2022/08/08 07:15:44;;;;;;;;;;;;;;;-144.99;100.00;61100.13;5068430;28;19998;-68
2022/08/08 07:18:18;;;;;;;;;;;;;;;-144.99;100.00;61100.13;5074367;28;20018;-67
2022/08/08 07:20:48;;;;;;;;;;;;;;;-144.99;100.00;61100.13;5077247;28;19967;-68
2022/08/08 07:23:19;;;;;;;;;;;;;;;-144.99;100.00;61100.13;5059788;28;20579;-68
2022/08/08 07:25:47;;;;;;;;;;;;;;;-144.99;100.00;61100.13;5077821;28;19925;-69
2022/08/08 07:28:15;;;;;;;;;;;;;;;-144.99;100.00;61100.13;5063378;28;20019;-68
2022/08/08 07:30:42;;;;;;;;;;;;;;;-144.99;100.00;61100.13;5068581;28;19925;-68
2022/08/08 07:33:10;;;;;;;;;;;;;;;-144.99;100.00;61100.13;5075015;28;19924;-69
2022/08/08 07:35:38;;;;;;;;;;;;;;;-144.99;100.00;61100.13;5075725;28;19928;-68
2022/08/08 07:38:05;;;;;;;;;;;;;;;-144.99;100.00;61100.13;5078955;28;19924;-69
2022/08/08 07:40:32;;;;;;;;;;;;;;;-144.99;100.00;61100.13;5063479;28;20020;-69
2022/08/08 07:43:01;;;;;;;;;;;;;;;-144.99;100.00;61100.13;5069273;28;19954;-69
2022/08/08 07:45:27;;;;;;;;;;;;;;;-144.99;100.00;61100.13;5069269;28;19971;-68
2022/08/08 07:47:54;;;;;;;;;;;;;;;-144.99;100.00;61100.13;5069207;28;20031;-69
2022/08/08 07:50:20;;;;;;;;;;;;;;;-144.99;100.00;61100.13;5068368;28;19960;-69
2022/08/08 07:52:50;;;;;;;;;;;;;;;-144.99;100.00;61100.13;5064742;28;20572;-69
2022/08/08 07:55:21;;;;;;;;;;;;;;;-144.99;100.00;61100.13;5069599;28;20023;-69
2022/08/08 07:57:53;;;;;;;;;;;;;;;-144.99;100.00;61100.13;5080301;28;19924;-68
2022/08/08 08:00:19;;;;;;;;;;;;;;;-144.99;100.00;61100.13;5069948;28;20019;-68
2022/08/08 08:02:47;;;;;;;;;;;;;;;-144.99;100.00;61100.13;5071985;28;20019;-70
2022/08/08 08:05:17;;;;;;;;;;;;;;;-144.99;100.00;61100.13;5077429;28;20335;-70
2022/08/08 08:07:47;;;;;;;;;;;;;;;-144.99;100.00;61100.13;5069381;28;20381;-69
2022/08/08 08:10:16;;;;;;;;;;;;;;;-144.99;100.00;61100.13;5070078;28;19950;-70
2022/08/08 08:12:47;;;;;;;;;;;;;;;-144.99;100.00;61100.13;5076921;28;20309;-69
2022/08/08 08:15:15;;;;;;;;;;;;;;;-144.99;100.00;61100.13;5082358;28;20002;-69
2022/08/08 08:17:44;;;;;;;;;;;;;;;-144.99;100.00;61100.13;5077268;28;19950;-69
2022/08/08 08:20:10;;;;;;;;;;;;;;;-144.99;100.00;61100.13;5081875;28;19966;-69
2022/08/08 08:22:37;;;;;;;;;;;;;;;-144.99;100.00;61100.13;5070337;28;20417;-68
2022/08/08 08:25:04;;;;;;;;;;;;;;;-144.99;100.00;61100.13;5072614;28;20031;-68
2022/08/08 08:27:31;;;;;;;;;;;;;;;-144.99;100.00;61100.13;5073241;28;20068;-68
2022/08/08 08:29:58;;;;;;;;;;;;;;;-144.99;100.00;61100.13;5079141;28;19925;-68
2022/08/08 08:32:25;;;;;;;;;;;;;;;-144.99;100.00;61100.13;5078512;28;19967;-68
2022/08/08 08:34:52;;;;;;;;;;;;;;;-144.99;100.00;61100.13;5078506;28;19931;-69
2022/08/08 08:37:18;;;;;;;;;;;;;;;-144.99;100.00;61100.13;5079097;28;19932;-69
2022/08/08 08:39:45;;;;;;;;;;;;;;;-144.99;100.00;61100.13;5072061;28;19972;-69
2022/08/08 08:42:12;;;;;;;;;;;;;;;-144.99;100.00;61100.13;5071651;28;19959;-67
2022/08/08 08:44:40;;;;;;;;;;;;;;;-144.99;100.00;61100.13;5071615;28;19940;-67
2022/08/08 08:47:07;;;;;;;;;;;;;;;-144.99;100.00;61100.13;5071579;28;19958;-68
2022/08/08 08:49:33;;;;;;;;;;;;;;;-144.99;100.00;61100.13;5071318;28;20015;-68
2022/08/08 08:52:01;;;;;;;;;;;;;;;-144.99;100.00;61100.13;5071223;28;19924;-68
2022/08/08 08:54:31;;;;;;;;;;;;;;;-144.99;100.00;61100.13;5071790;28;19928;-69
2022/08/08 08:56:58;;;;;;;;;;;;;;;-144.99;100.00;61100.13;5071675;28;20023;-69
2022/08/08 08:59:28;;;;;;;;;;;;;;;-144.99;100.00;61100.13;5075201;28;20417;-69
2022/08/08 09:01:56;;;;;;;;;;;;;;;-144.99;100.00;61100.13;5072473;28;20023;-69
2022/08/08 09:04:23;;;;;;;;;;;;;;;-144.99;100.00;61100.13;5073161;28;20022;-69
2022/08/08 09:06:50;;;;;;;;;;;;;;;-144.99;100.00;61100.13;5072738;28;19925;-69
2022/08/08 09:09:17;;;;;;;;;;;;;;;-144.99;100.00;61100.13;5072557;28;20393;-69
2022/08/08 09:11:45;;;;;;;;;;;;;;;-144.99;100.00;61100.13;5077230;28;19931;-69
2022/08/08 09:14:12;;;;;;;;;;;;;;;-144.99;100.00;61100.13;5080442;28;20433;-69
2022/08/08 09:16:38;;;;;;;;;;;;;;;-144.99;100.00;61100.13;5084992;28;20021;-69
2022/08/08 09:19:06;;;;;;;;;;;;;;;-144.99;100.00;61100.13;5079583;28;19925;-69
2022/08/08 09:21:33;;;;;;;;;;;;;;;-144.99;100.00;61100.13;5078747;28;19932;-69
2022/08/08 09:23:59;;;;;;;;;;;;;;;-144.99;100.00;61100.13;5074547;28;20023;-69
2022/08/08 09:26:29;;;;;;;;;;;;;;;-144.99;100.00;61100.13;5071695;28;19924;-69
2022/08/08 09:28:57;;;;;;;;;;;;;;;-144.99;100.00;61100.13;5071778;28;19924;-68
2022/08/08 09:31:34;;;;;;;;;;;;;;;-144.99;100.00;61100.13;5076957;28;20308;-68
2022/08/08 09:34:01;;;;;;;;;;;;;;;-144.99;100.00;61100.13;5077486;28;20015;-68
2022/08/08 09:36:29;;;;;;;;;;;;;;;-144.99;100.00;61100.13;5081015;28;20022;-69
2022/08/08 09:38:59;;;;;;;;;;;;;;;-144.99;100.00;61100.13;5077576;28;20019;-69
2022/08/08 09:41:33;;;;;;;;;;;;;;;-144.99;100.00;61100.13;5075556;28;20328;-69
2022/08/08 09:44:04;;;;;;;;;;;;;;;-144.99;100.00;61100.13;5083026;28;19989;-69
2022/08/08 09:46:31;;;;;;;;;;;;;;;-144.99;100.00;61100.13;5085660;28;19964;-68
2022/08/08 09:48:59;;;;;;;;;;;;;;;-144.99;100.00;61100.13;5084927;28;20030;-70
2022/08/08 09:51:30;;;;;;;;;;;;;;;-144.99;100.00;61100.13;5090350;28;20042;-68
2022/08/08 09:54:01;;;;;;;;;;;;;;;-144.99;100.00;61100.13;5078802;28;19929;-68
2022/08/08 09:56:31;;;;;;;;;;;;;;;-144.99;100.00;61100.13;5084252;28;19997;-69
2022/08/08 09:59:01;;;;;;;;;;;;;;;-144.99;100.00;61100.13;5077677;28;20293;-69
2022/08/08 10:01:31;;;;;;;;;;;;;;;-144.99;100.00;61100.13;5074918;28;19947;-69
2022/08/08 10:03:57;;;;;;;;;;;;;;;-144.99;100.00;61100.13;5084110;22;19963;-70
2022/08/08 10:06:24;;;;;;;;;;;;;;;-144.99;100.00;61100.13;5051025;28;19925;-70
2022/08/08 10:08:51;;;;;;;;;;;;;;;-144.99;100.00;61100.13;5044637;28;19925;-70
2022/08/08 10:11:19;;;;;;;;;;;;;;;-144.99;100.00;61100.13;5055381;28;19928;-70
2022/08/08 10:13:53;;;;;;;;;;;;;;;-144.99;100.00;61100.13;5046127;28;20223;-71
2022/08/08 10:16:19;;;;;;;;;;;;;;;-144.99;100.00;61100.13;5049135;28;19925;-71
2022/08/08 10:18:46;;;;;;;;;;;;;;;-144.99;100.00;61100.13;5045279;28;20028;-71
2022/08/08 10:21:13;;;;;;;;;;;;;;;-144.99;100.00;61100.13;5043253;28;19931;-70
2022/08/08 10:23:40;;;;;;;;;;;;;;;-144.99;100.00;61100.13;5047428;28;20360;-71
2022/08/08 10:26:09;;;;;;;;;;;;;;;-144.99;100.00;61100.13;5044150;28;20027;-70
2022/08/08 10:28:38;;;;;;;;;;;;;;;-144.99;100.00;61100.13;5048970;28;20011;-71
2022/08/08 10:33:47;;;;;;;;;;;;;;;-144.99;100.00;61100.13;5070301;28;19924;-70
2022/08/08 10:36:15;;;;;;;;;;;;;;;-144.99;100.00;61100.13;5044991;28;19964;-72
2022/08/08 10:38:42;;;;;;;;;;;;;;;-144.99;100.00;61100.13;5047462;28;19943;-70
2022/08/08 10:41:16;;;;;;;;;;;;;;;-144.99;100.00;61100.13;5044770;28;19925;-70
2022/08/08 10:43:43;;;;;;;;;;;;;;;-144.99;100.00;61100.13;5051603;28;19925;-70
2022/08/08 10:48:50;;;;;;;;;;;;;;;-144.99;100.00;61100.13;5062642;28;19913;-72
2022/08/08 10:51:17;;;;;;;;;;;;;;;-144.99;100.00;61100.13;5073779;28;19920;-72
2022/08/08 10:53:47;;;;;;;;;;;;;;;-144.99;100.00;61100.13;5075023;28;19913;-72
2022/08/08 10:56:13;;;;;;;;;;;;;;;-144.99;100.00;61100.13;5067517;28;19939;-72
2022/08/08 10:58:40;;;;;;;;;;;;;;;-144.99;100.00;61100.13;5059240;28;20032;-72
2022/08/08 11:01:09;;;;;;;;;;;;;;;-144.99;100.00;61100.13;5053882;28;20024;-71
2022/08/08 11:03:41;;;;;;;;;;;;;;;-144.99;100.00;61100.13;5045033;28;19929;-71
2022/08/08 11:06:07;;;;;;;;;;;;;;;-144.99;100.00;61100.13;5046988;28;19947;-71
2022/08/08 11:08:35;;;;;;;;;;;;;;;-144.99;100.00;61100.13;5043325;28;20382;-71
2022/08/08 11:11:02;;;;;;;;;;;;;;;-144.99;100.00;61100.13;5043957;28;19932;-72
2022/08/08 11:13:28;;;;;;;;;;;;;;;-144.99;100.00;61100.13;5044712;28;19925;-72
2022/08/08 11:15:55;;;;;;;;;;;;;;;-144.99;100.00;61100.13;5052631;28;19959;-71
2022/08/08 11:18:24;;;;;;;;;;;;;;;-144.99;100.00;61100.13;5057348;28;19933;-73
2022/08/08 11:20:50;;;;;;;;;;;;;;;-144.99;100.00;61100.13;5069832;28;19912;-71
2022/08/08 11:23:20;;;;;;;;;;;;;;;-144.99;100.00;61100.13;5061478;28;19925;-71
2022/08/08 11:25:47;;;;;;;;;;;;;;;-144.99;100.00;61100.13;5058228;28;20011;-72
2022/08/08 11:28:15;;;;;;;;;;;;;;;-144.99;100.00;61100.13;5040328;28;20382;-73
2022/08/08 11:30:43;;;;;;;;;;;;;;;-144.99;100.00;61100.13;5063522;28;19984;-72
2022/08/08 11:33:10;;;;;;;;;;;;;;;-144.99;100.00;61100.13;5052505;28;19913;-70
2022/08/08 11:35:38;;;;;;;;;;;;;;;-144.99;100.00;61100.13;5053904;28;20312;-70
2022/08/08 11:38:05;;;;;;;;;;;;;;;-144.99;100.00;61100.13;5044694;28;20151;-74
2022/08/08 11:40:32;;;;;;;;;;;;;;;-144.99;100.00;61100.13;5039554;28;19929;-71
2022/08/08 11:43:00;;;;;;;;;;;;;;;-144.99;100.00;61100.13;5044910;28;19968;-71
2022/08/08 11:45:27;;;;;;;;;;;;;;;-144.99;100.00;61100.13;5044017;28;19948;-71
2022/08/08 11:47:54;;;;;;;;;;;;;;;-144.99;100.00;61100.13;5042000;28;19935;-72
2022/08/08 11:50:20;;;;;;;;;;;;;;;-144.99;100.00;61100.13;5052110;28;19993;-70
2022/08/08 11:52:49;;;;;;;;;;;;;;;-144.99;100.00;61100.13;5049387;28;19971;-71
2022/08/08 11:55:17;;;;;;;;;;;;;;;-144.99;100.00;61100.13;5058748;28;19925;-72
2022/08/08 11:57:43;;;;;;;;;;;;;;;-144.99;100.00;61100.13;5052448;28;19972;-72
2022/08/08 12:00:16;;;;;;;;;;;;;;;-144.99;100.00;61100.13;5050972;28;19941;-71
2022/08/08 12:02:46;;;;;;;;;;;;;;;-144.99;100.00;61100.13;5049792;28;19929;-71
2022/08/08 12:05:12;;;;;;;;;;;;;;;-144.99;100.00;61100.13;5045996;28;19933;-71
2022/08/08 12:07:50;;;;;;;;;;;;;;;-144.99;100.00;61100.13;5046680;28;20388;-71
2022/08/08 12:10:18;;;;;;;;;;;;;;;-144.99;100.00;61100.13;5045821;28;19979;-72
2022/08/08 12:12:45;;;;;;;;;;;;;;;-144.99;100.00;61100.13;5045098;28;19974;-70
2022/08/08 12:15:12;;;;;;;;;;;;;;;-144.99;100.00;61100.13;5051970;28;20000;-71
2022/08/08 12:17:41;;;;;;;;;;;;;;;-144.99;100.00;61100.13;5051810;28;19925;-71
2022/08/08 12:20:08;;;;;;;;;;;;;;;-144.99;100.00;61100.13;5047961;28;19993;-71
2022/08/08 12:22:45;;;;;;;;;;;;;;;-144.99;100.00;61100.13;5053606;28;19929;-70
2022/08/08 12:25:21;;;;;;;;;;;;;;;-144.99;100.00;61100.13;5057374;28;20260;-70
2022/08/08 12:27:47;;;;;;;;;;;;;;;-144.99;100.00;61100.13;5056280;28;19925;-71
2022/08/08 12:30:14;;;;;;;;;;;;;;;-144.99;100.00;61100.13;5054155;28;19960;-71
2022/08/08 12:32:41;;;;;;;;;;;;;;;-144.99;100.00;61100.13;5054985;28;19979;-70
2022/08/08 12:35:08;;;;;;;;;;;;;;;-144.99;100.00;61100.13;5053740;28;19925;-71
2022/08/08 12:37:34;;;;;;;;;;;;;;;-144.99;100.00;61100.13;5052072;28;20023;-70
2022/08/08 12:40:11;;;;;;;;;;;;;;;-144.99;100.00;61100.13;5045364;28;19935;-72
2022/08/08 12:42:45;;;;;;;;;;;;;;;-144.99;100.00;61100.13;5058398;28;19925;-72